Elkhorn, Wisconsin
Current Conditions -  °F | °C
As of 6:15 PM on Friday 24 Oct 2014 (Local Time) from KBUU Reporting Station
Broken Clouds Broken Clouds  
Wind Chill: 53°   Ceiling: 8000
Heat Index: 53°   Visibility: 10mi
Dew Point: 49°   Wind: 0mph
Humidity: 87%   Direction: NA
Pressure: 29.94"   Gusts: NA
Location:  42.67°N, 88.54°W
Report Text: KBUU 242315Z AUTO 00000KT 10SM BKN080 12/09 A2994 RMK AO2 T01150094
Loading
Personal Weather Stations






























Interactive Weather Map
Tropical Storm Tracking
New forecast layout! Learn more

10-Day Weather Forecast

Advertisements
Track Severe Weather on mobile